Maastricht-Aachen Airport

EHBK · Limburg, 荷兰

罗盘
风向 的 风向 190° Maastricht-Aachen Airport 3/21
风: 4 kt, 2 beaufort

4 kt

2 kt
改变
0 ft 6.000 12.000 18.000 24.000 30.000
Cloud Cloud
FEW 900
Cloud Cloud Cloud Cloud Cloud Cloud
BKN 30.000
METAR ETNG 280950Z 19004KT 9999 FEW009 BKN300 06/03 Q1022 NOSIG

METAR Maastricht-Aachen Airport - EHBK/MST

Maastricht-Aachen Airport是,荷兰中的中型机场。 该机场位于纬度50,91130和经度5,76964。 该机场有一条跑道: 3/21. 本场的ICAO机场代码为EHBK。 该机场的IATA代码为MST。 机场在Langen FIR中。

该航空气象观测是针对Geilenkirchen Air Base在2024年2月28日 10:50, 当地时间进行的。

机场观察

风向为190°,速度为4 kt。

可见度为10 km 或者更多。

有几云在900 ft的高度 和 碎云在30.000 ft的高度。 破损或更高的上限为30.000 ft。

温度为6 °C,阵风为3 °C。 露点为3 °C,相对湿度为81%。 海平面上的气压为1022 hPa (QNH)。

白天

今天,太阳从07:24升起,在18:14降落。 这适用于Maastricht-Aachen Airport,世界夏令时可能有所不同。 当地时间与世界标准时间之间的时差为+1 小时。 当前,没有夏令时有效。

公司介绍

我们没有关于这个机场的公司信息。

体会

到Vliegles.nl去找飞行课程,跳伞和其他飞行体验。 浏览页面,了解Maastricht-Aachen Airport附近所有可用的活动。 你也可以使用搜索功能来寻找你所在地附近的特定飞行课程、跳伞或其他飞行体验。

跑道

Id 标题 侧风 逆风 侧风 %
3/21 033°-213° 2 kt 4 kt 39 %

逆风成分最大的方向会被突出显示,并用于横风计算。 这并不一定意味着这个方向在使用。

乌云

900 ft FEW 几云
30.000 ft BKN 碎云

温度 & 天气

温度 6 °C
露点 3 °C
相对湿度 81%
风寒 3 °C
Kp-index 1 (0-9)

白天

日出
07:23
中午
12:48
日落
18:13 (6:20)

小工具

你想在你的网站上有一个关于Maastricht-Aachen Airport的当前航空天气(METAR)的小部件吗?

显示HTML代码
?>